createdAt,value
2018-04-14T00:00:38.365Z,99.20
2018-04-14T00:03:04.372Z,90.87
2018-04-14T00:05:30.374Z,103.83
2018-04-14T00:07:56.432Z,103.37
2018-04-14T00:10:22.480Z,77.83
2018-04-14T00:12:48.525Z,94.07
2018-04-14T00:15:14.608Z,72.43
2018-04-14T00:17:41.348Z,112.20
2018-04-14T00:20:07.352Z,93.53
2018-04-14T00:22:33.604Z,90.63
2018-04-14T00:24:59.601Z,83.93
2018-04-14T00:27:25.666Z,95.60
2018-04-14T00:29:51.915Z,83.67
2018-04-14T00:32:17.948Z,85.47
2018-04-14T00:34:44.021Z,97.80
2018-04-14T00:37:10.069Z,88.27
2018-04-14T00:39:36.113Z,82.07
2018-04-14T00:42:02.176Z,86.63
2018-04-14T00:44:28.218Z,75.03
2018-04-14T00:46:54.258Z,80.47
2018-04-14T00:49:20.432Z,90.17
2018-04-14T00:51:46.457Z,82.50
2018-04-14T00:54:12.477Z,97.33
2018-04-14T00:56:38.521Z,76.63
2018-04-14T00:59:04.537Z,102.87
2018-04-14T01:01:30.616Z,93.83
2018-04-14T01:03:56.712Z,82.67
2018-04-14T01:06:22.721Z,88.47
2018-04-14T01:08:48.720Z,90.70
2018-04-14T01:11:14.732Z,82.73
2018-04-14T01:13:41.157Z,78.67
2018-04-14T01:16:07.192Z,84.17
2018-04-14T01:18:33.273Z,86.47
2018-04-14T01:21:00.013Z,105.67
2018-04-14T01:23:26.028Z,75.03
2018-04-14T01:25:52.156Z,79.53
2018-04-14T01:28:18.163Z,80.80
2018-04-14T01:30:44.201Z,85.37
2018-04-14T01:33:10.200Z,78.80
2018-04-14T01:35:36.328Z,99.00
2018-04-14T01:38:02.404Z,90.10
2018-04-14T01:40:28.415Z,100.33
2018-04-14T01:42:54.508Z,110.50
2018-04-14T01:45:20.541Z,101.67
2018-04-14T01:47:46.560Z,112.37
2018-04-14T01:50:12.856Z,98.80
2018-04-14T01:52:38.864Z,88.83
2018-04-14T01:55:04.881Z,109.73
2018-04-14T01:57:30.884Z,99.60
2018-04-14T01:59:57.620Z,93.47
2018-04-14T02:02:23.941Z,99.60
2018-04-14T02:04:50.797Z,93.23
2018-04-14T02:07:18.116Z,98.70
2018-04-14T02:09:44.115Z,106.77
2018-04-14T02:12:10.129Z,103.60
2018-04-14T02:14:36.348Z,92.00
2018-04-14T02:17:02.374Z,100.57
2018-04-14T02:19:28.391Z,113.97
2018-04-14T02:21:54.521Z,112.00
2018-04-14T02:24:20.703Z,113.07
2018-04-14T02:26:46.712Z,105.30
2018-04-14T02:29:12.968Z,110.87
2018-04-14T02:31:38.983Z,95.40
2018-04-14T02:34:04.977Z,94.50
2018-04-14T02:36:31.172Z,91.37
2018-04-14T02:38:57.581Z,103.40
2018-04-14T02:41:23.612Z,114.53
2018-04-14T02:43:49.980Z,99.40
2018-04-14T02:46:16.390Z,90.30
2018-04-14T02:48:42.407Z,91.73
2018-04-14T02:51:08.407Z,90.23
2018-04-14T02:53:34.892Z,83.23
2018-04-14T02:56:00.953Z,84.03
2018-04-14T02:58:26.972Z,84.33
2018-04-14T03:00:53.000Z,94.03
2018-04-14T03:03:19.065Z,90.60
2018-04-14T03:05:45.098Z,96.47
2018-04-14T03:08:11.136Z,78.63
2018-04-14T03:10:37.149Z,91.77
2018-04-14T03:13:03.670Z,94.37
2018-04-14T03:15:30.049Z,82.97
2018-04-14T03:17:56.072Z,82.00
2018-04-14T03:20:22.418Z,80.93
2018-04-14T03:22:48.424Z,82.47
2018-04-14T03:25:14.573Z,99.53
2018-04-14T03:27:40.564Z,76.70
2018-04-14T03:30:06.620Z,95.90
2018-04-14T03:32:32.770Z,99.70
2018-04-14T03:34:58.768Z,93.47
2018-04-14T03:37:24.964Z,95.77
2018-04-14T03:39:51.020Z,79.40
2018-04-14T03:42:17.034Z,81.03
2018-04-14T03:44:43.033Z,96.07
2018-04-14T03:47:09.099Z,100.63
2018-04-14T03:49:35.305Z,89.97
2018-04-14T03:52:01.348Z,94.47
2018-04-14T03:54:28.074Z,92.47
2018-04-14T03:56:54.193Z,95.57
2018-04-14T03:59:20.216Z,91.67
2018-04-14T04:01:46.236Z,96.53
2018-04-14T04:04:12.692Z,92.47
2018-04-14T04:06:38.701Z,106.07
2018-04-14T04:09:04.711Z,102.33
2018-04-14T04:11:30.816Z,88.83
2018-04-14T04:13:56.942Z,94.20
2018-04-14T04:16:22.964Z,80.73
2018-04-14T04:19:01.667Z,79.03
2018-04-14T04:21:40.012Z,86.13
2018-04-14T04:24:18.308Z,102.80
2018-04-14T04:26:44.319Z,90.97
2018-04-14T04:29:10.472Z,82.70
2018-04-14T04:31:36.528Z,96.60
2018-04-14T04:34:02.547Z,102.40
2018-04-14T04:36:29.089Z,83.17
2018-04-14T04:38:55.094Z,87.23
2018-04-14T04:41:21.636Z,82.40
2018-04-14T04:43:47.635Z,83.47
2018-04-14T04:46:13.716Z,86.37
2018-04-14T04:48:39.763Z,75.13
2018-04-14T04:51:05.832Z,83.63
2018-04-14T04:53:32.176Z,87.40
2018-04-14T04:55:58.188Z,87.47
2018-04-14T04:58:24.265Z,92.47
2018-04-14T05:00:50.449Z,85.57
2018-04-14T05:03:16.665Z,79.40
2018-04-14T05:05:42.693Z,82.37
2018-04-14T05:08:08.716Z,80.07
2018-04-14T05:10:34.728Z,88.77
2018-04-14T05:13:00.736Z,80.80
2018-04-14T05:15:26.864Z,82.37
2018-04-14T05:17:53.008Z,90.93
2018-04-14T05:20:19.131Z,87.87
2018-04-14T05:22:45.586Z,99.17
2018-04-14T05:25:11.637Z,94.73
2018-04-14T05:27:37.680Z,88.07
2018-04-14T05:30:04.657Z,85.77
2018-04-14T05:32:30.677Z,94.57
2018-04-14T05:34:56.764Z,107.10
2018-04-14T05:37:22.784Z,102.50
2018-04-14T05:39:48.860Z,99.47
2018-04-14T05:42:14.928Z,96.03
2018-04-14T05:44:40.952Z,98.37
2018-04-14T05:47:07.332Z,102.60
2018-04-14T05:49:33.457Z,86.40
2018-04-14T05:51:59.521Z,94.27
2018-04-14T05:54:25.671Z,95.83
2018-04-14T05:56:51.705Z,95.83
2018-04-14T05:59:17.704Z,90.97
2018-04-14T06:01:43.724Z,97.43
2018-04-14T06:04:10.153Z,88.73
2018-04-14T06:06:36.247Z,89.67
2018-04-14T06:09:02.321Z,87.17
2018-04-14T06:11:29.364Z,107.57
2018-04-14T06:13:55.460Z,104.47
2018-04-14T06:16:21.481Z,97.00
2018-04-14T06:18:47.843Z,92.80
2018-04-14T06:21:13.956Z,108.07
2018-04-14T06:23:39.987Z,109.80
2018-04-14T06:26:05.998Z,116.50
2018-04-14T06:28:32.098Z,100.40
2018-04-14T06:30:58.189Z,108.77
2018-04-14T06:33:25.015Z,116.07
2018-04-14T06:35:51.973Z,117.30
2018-04-14T06:38:18.064Z,104.43
2018-04-14T06:40:44.524Z,99.40
2018-04-14T06:43:10.584Z,94.50
2018-04-14T06:45:36.920Z,112.17
2018-04-14T06:48:02.952Z,98.63
2018-04-14T06:50:29.073Z,100.43
2018-04-14T06:52:55.112Z,94.60
2018-04-14T06:55:21.108Z,95.97
2018-04-14T06:57:47.828Z,105.10
2018-04-14T07:00:13.892Z,102.53
2018-04-14T07:02:40.116Z,93.63
2018-04-14T07:05:06.149Z,99.00
2018-04-14T07:07:32.213Z,94.13
2018-04-14T07:09:58.354Z,89.37
2018-04-14T07:12:24.558Z,106.37
2018-04-14T07:14:50.640Z,99.90
2018-04-14T07:17:16.700Z,98.00
2018-04-14T07:19:42.713Z,102.10
2018-04-14T07:22:08.770Z,104.13
2018-04-14T07:24:34.817Z,103.27
2018-04-14T07:27:00.841Z,102.20
2018-04-14T07:29:27.632Z,102.07
2018-04-14T07:31:53.961Z,102.27
2018-04-14T07:34:20.148Z,98.90
2018-04-14T07:36:46.968Z,97.50
2018-04-14T07:39:13.032Z,96.93
2018-04-14T07:41:39.415Z,102.30
2018-04-14T07:44:05.760Z,97.67
2018-04-14T07:46:31.829Z,96.47
2018-04-14T07:48:57.846Z,97.40
2018-04-14T07:51:23.957Z,98.67
2018-04-14T07:53:50.136Z,96.67
2018-04-14T07:56:16.204Z,93.73
2018-04-14T07:58:42.552Z,93.27
2018-04-14T08:01:08.583Z,100.47
2018-04-14T08:03:34.661Z,92.43
2018-04-14T08:06:01.447Z,95.53
2018-04-14T08:08:27.445Z,88.57
2018-04-14T08:10:53.544Z,91.87
2018-04-14T08:13:19.927Z,90.10
2018-04-14T08:15:45.949Z,86.40
2018-04-14T08:18:12.392Z,89.90
2018-04-14T08:20:38.412Z,88.97
2018-04-14T08:23:04.436Z,91.37
2018-04-14T08:25:30.451Z,88.30
2018-04-14T08:27:56.601Z,83.63
2018-04-14T08:30:23.059Z,87.30
2018-04-14T08:32:49.349Z,90.63
2018-04-14T08:35:15.393Z,86.30
2018-04-14T08:37:41.405Z,84.53
2018-04-14T08:40:08.029Z,78.00
2018-04-14T08:42:34.037Z,84.80
2018-04-14T08:45:00.081Z,80.53
2018-04-14T08:47:26.163Z,86.87
2018-04-14T08:49:52.163Z,86.43
2018-04-14T08:52:18.189Z,84.77
2018-04-14T08:54:45.091Z,85.90
2018-04-14T08:57:11.188Z,83.40
2018-04-14T08:59:37.233Z,83.20
2018-04-14T09:02:03.443Z,80.73
2018-04-14T09:04:29.904Z,75.67
2018-04-14T09:06:55.926Z,79.50
2018-04-14T09:09:21.940Z,79.87
2018-04-14T09:11:48.116Z,80.17
2018-04-14T09:14:14.126Z,77.73
2018-04-14T09:16:40.176Z,81.00
2018-04-14T09:19:06.316Z,71.93
2018-04-14T09:21:32.332Z,72.63
2018-04-14T09:23:58.330Z,72.47
2018-04-14T09:26:24.436Z,81.67
2018-04-14T09:28:51.232Z,81.57
2018-04-14T09:31:17.606Z,79.97
2018-04-14T09:33:43.620Z,77.93
2018-04-14T09:36:09.624Z,81.53
2018-04-14T09:38:35.668Z,76.60
2018-04-14T09:41:01.873Z,78.00
2018-04-14T09:43:42.848Z,78.97
2018-04-14T09:46:09.282Z,77.50
2018-04-14T09:48:35.277Z,77.53
2018-04-14T09:51:01.292Z,80.43
2018-04-14T09:53:27.492Z,78.47
2018-04-14T09:55:53.549Z,83.43
2018-04-14T09:58:20.044Z,78.00
2018-04-14T10:00:52.196Z,74.63
2018-04-14T10:03:22.992Z,74.33
2018-04-14T10:05:49.075Z,78.30
2018-04-14T10:08:15.093Z,74.97
2018-04-14T10:10:41.172Z,79.53
2018-04-14T10:13:07.224Z,69.77
2018-04-14T10:15:33.309Z,73.97
2018-04-14T10:17:59.381Z,77.20
2018-04-14T10:20:26.169Z,70.77
2018-04-14T10:22:52.936Z,78.33
2018-04-14T10:25:18.977Z,73.47
2018-04-14T10:27:45.017Z,77.50
2018-04-14T10:30:11.779Z,74.90
2018-04-14T10:32:37.893Z,71.03
2018-04-14T10:35:04.300Z,74.23
2018-04-14T10:37:30.291Z,72.60
2018-04-14T10:39:56.311Z,77.17
2018-04-14T10:42:22.727Z,72.60
2018-04-14T10:44:49.072Z,77.47
2018-04-14T10:47:15.183Z,70.30
2018-04-14T10:49:41.178Z,70.37
2018-04-14T10:52:07.196Z,68.97
2018-04-14T10:54:33.276Z,70.23
2018-04-14T10:56:59.482Z,64.67
2018-04-14T10:59:25.849Z,75.03
2018-04-14T11:01:51.986Z,73.30
2018-04-14T11:04:18.000Z,70.93
2018-04-14T11:06:44.004Z,73.83
2018-04-14T11:09:10.024Z,79.23
2018-04-14T11:11:36.244Z,77.67
2018-04-14T11:14:02.268Z,79.90
2018-04-14T11:16:28.320Z,74.53
2018-04-14T11:18:54.369Z,72.87
2018-04-14T11:21:20.385Z,73.87
2018-04-14T11:23:46.497Z,68.13
2018-04-14T11:26:12.521Z,70.83
2018-04-14T11:28:38.521Z,76.90
2018-04-14T11:31:05.340Z,69.97
2018-04-14T11:33:31.560Z,75.57
2018-04-14T11:35:57.684Z,76.30
2018-04-14T11:38:23.676Z,74.60
2018-04-14T11:40:49.705Z,79.17
2018-04-14T11:43:15.833Z,72.30
2018-04-14T11:45:41.840Z,76.43
2018-04-14T11:48:07.861Z,77.47
2018-04-14T11:50:34.028Z,75.03
2018-04-14T11:53:15.005Z,76.80
2018-04-14T11:55:41.546Z,72.80
2018-04-14T11:58:07.550Z,74.83
2018-04-14T12:00:33.677Z,73.53
2018-04-14T12:03:00.470Z,66.07
2018-04-14T12:05:26.500Z,65.17
2018-04-14T12:07:52.806Z,72.73
2018-04-14T12:10:18.801Z,70.17
2018-04-14T12:12:44.809Z,67.63
2018-04-14T12:15:11.610Z,66.40
2018-04-14T12:17:37.661Z,66.53
2018-04-14T12:20:03.669Z,62.53
2018-04-14T12:22:30.425Z,65.03
2018-04-14T12:24:56.552Z,62.13
2018-04-14T12:27:22.604Z,61.70
2018-04-14T12:29:48.755Z,61.50
2018-04-14T12:32:14.769Z,61.33
2018-04-14T12:34:40.809Z,63.37
2018-04-14T12:37:06.969Z,68.67
2018-04-14T12:39:32.993Z,69.43
2018-04-14T12:41:59.003Z,68.40
2018-04-14T12:44:25.206Z,62.33
2018-04-14T12:46:51.212Z,67.77
2018-04-14T12:49:17.409Z,63.10
2018-04-14T12:51:43.428Z,65.13
2018-04-14T12:54:09.432Z,61.67
2018-04-14T12:56:35.709Z,61.57
2018-04-14T12:59:02.472Z,58.83
2018-04-14T13:01:28.468Z,57.83
2018-04-14T13:03:54.521Z,56.87
2018-04-14T13:06:20.540Z,56.73
2018-04-14T13:08:46.591Z,58.73
2018-04-14T13:11:13.364Z,64.90
2018-04-14T13:13:39.372Z,64.13
2018-04-14T13:16:05.441Z,60.00
2018-04-14T13:18:31.448Z,60.27
2018-04-14T13:20:57.485Z,63.17
2018-04-14T13:23:23.512Z,61.13
2018-04-14T13:25:49.897Z,62.33
2018-04-14T13:28:15.932Z,67.33
2018-04-14T13:30:41.944Z,59.70
2018-04-14T13:33:07.960Z,59.50
2018-04-14T13:35:34.386Z,61.17
2018-04-14T13:38:00.417Z,58.90
2018-04-14T13:40:27.324Z,53.13
2018-04-14T13:42:53.374Z,56.87
2018-04-14T13:45:19.407Z,56.40
2018-04-14T13:47:45.725Z,61.50
2018-04-14T13:50:11.724Z,59.73
2018-04-14T13:52:37.756Z,59.73
2018-04-14T13:55:03.797Z,60.03
2018-04-14T13:57:29.821Z,53.13
2018-04-14T13:59:55.981Z,53.83
2018-04-14T14:02:22.745Z,50.33
2018-04-14T14:04:48.756Z,55.83
2018-04-14T14:07:14.925Z,55.33
2018-04-14T14:09:40.932Z,57.33
2018-04-14T14:12:06.931Z,53.00
2018-04-14T14:14:32.952Z,57.47
2018-04-14T14:16:58.944Z,56.33
2018-04-14T14:19:25.070Z,51.33
2018-04-14T14:21:51.533Z,51.13
2018-04-14T14:24:17.536Z,57.20
2018-04-14T14:26:43.542Z,55.47
2018-04-14T14:29:09.565Z,55.57
2018-04-14T14:31:35.627Z,51.07
2018-04-14T14:34:02.433Z,60.77
2018-04-14T14:36:28.447Z,57.17
2018-04-14T14:38:54.604Z,53.93
2018-04-14T14:41:21.404Z,55.60
2018-04-14T14:43:47.412Z,51.87
2018-04-14T14:46:13.542Z,51.50
2018-04-14T14:48:40.292Z,54.67
2018-04-14T14:51:06.309Z,53.33
2018-04-14T14:53:32.329Z,48.13
2018-04-14T14:55:58.344Z,49.20
2018-04-14T14:58:24.393Z,47.73
2018-04-14T15:00:50.829Z,48.53
2018-04-14T15:03:16.867Z,47.70
2018-04-14T15:05:42.876Z,49.60
2018-04-14T15:08:08.880Z,48.97
2018-04-14T15:10:34.945Z,56.00
2018-04-14T15:13:16.101Z,52.33
2018-04-14T15:15:42.180Z,52.40
2018-04-14T15:18:08.180Z,52.10
2018-04-14T15:20:34.180Z,55.43
2018-04-14T15:23:00.245Z,52.73
2018-04-14T15:25:26.412Z,52.97
2018-04-14T15:27:52.682Z,55.60
2018-04-14T15:30:18.807Z,52.10
2018-04-14T15:32:44.854Z,60.47
2018-04-14T15:35:10.987Z,53.10
2018-04-14T15:37:37.016Z,48.97
2018-04-14T15:40:03.588Z,54.20
2018-04-14T15:42:29.597Z,49.17
2018-04-14T15:44:55.630Z,50.33
2018-04-14T15:47:21.795Z,53.03
2018-04-14T15:49:47.989Z,51.40
2018-04-14T15:52:14.000Z,53.43
2018-04-14T15:54:55.009Z,51.87
2018-04-14T15:57:21.534Z,52.07
2018-04-14T15:59:47.564Z,50.90
2018-04-14T16:02:13.699Z,51.80
2018-04-14T16:04:39.828Z,47.20
2018-04-14T16:07:05.840Z,46.13
2018-04-14T16:09:31.833Z,50.23
2018-04-14T16:11:57.876Z,46.07
2018-04-14T16:14:23.912Z,54.87
2018-04-14T16:16:49.914Z,51.23
2018-04-14T16:19:16.371Z,48.10
2018-04-14T16:21:42.396Z,48.07
2018-04-14T16:24:08.429Z,45.57
2018-04-14T16:26:34.469Z,48.07
2018-04-14T16:29:00.524Z,47.90
2018-04-14T16:31:27.365Z,47.77
2018-04-14T16:33:53.410Z,48.17
2018-04-14T16:36:20.157Z,47.17
2018-04-14T16:38:46.182Z,51.07
2018-04-14T16:41:12.201Z,51.27
2018-04-14T16:43:38.263Z,49.53
2018-04-14T16:46:04.308Z,48.80
2018-04-14T16:48:30.320Z,48.03
2018-04-14T16:50:56.348Z,50.53
2018-04-14T16:53:23.089Z,48.03
2018-04-14T16:55:49.784Z,47.40
2018-04-14T16:58:15.813Z,48.40
2018-04-14T17:00:41.836Z,50.90
2018-04-14T17:03:07.852Z,47.07
2018-04-14T17:05:33.856Z,47.63
2018-04-14T17:07:59.989Z,49.13
2018-04-14T17:10:26.032Z,49.70
2018-04-14T17:12:52.788Z,49.03
2018-04-14T17:15:18.920Z,47.77
2018-04-14T17:17:44.940Z,44.83
2018-04-14T17:20:10.932Z,43.60
2018-04-14T17:22:37.008Z,42.33
2018-04-14T17:25:03.184Z,48.13
2018-04-14T17:27:29.197Z,45.33
2018-04-14T17:29:55.937Z,48.93
2018-04-14T17:32:21.985Z,49.33
2018-04-14T17:34:48.043Z,46.93
2018-04-14T17:37:14.445Z,48.87
2018-04-14T17:39:40.466Z,47.63
2018-04-14T17:42:06.495Z,48.60
2018-04-14T17:44:32.546Z,47.80
2018-04-14T17:46:58.548Z,46.90
2018-04-14T17:49:24.564Z,51.17
2018-04-14T17:51:50.576Z,48.87
2018-04-14T17:54:16.720Z,48.43
2018-04-14T17:56:42.756Z,47.00
2018-04-14T17:59:08.768Z,51.43
2018-04-14T18:01:34.782Z,44.50
2018-04-14T18:04:00.793Z,48.90
2018-04-14T18:06:26.824Z,46.33
2018-04-14T18:08:52.876Z,51.27
2018-04-14T18:11:18.900Z,48.83
2018-04-14T18:13:44.900Z,51.20
2018-04-14T18:16:10.905Z,47.97
2018-04-14T18:18:38.060Z,49.87
2018-04-14T18:21:04.092Z,46.83
2018-04-14T18:23:30.116Z,44.60
2018-04-14T18:25:56.149Z,49.67
2018-04-14T18:28:22.217Z,51.80
2018-04-14T18:30:48.304Z,48.43
2018-04-14T18:33:14.324Z,48.27
2018-04-14T18:35:40.352Z,50.47
2018-04-14T18:38:06.415Z,47.90
2018-04-14T18:40:32.380Z,50.97
2018-04-14T18:42:58.473Z,50.80
2018-04-14T18:45:24.480Z,52.33
2018-04-14T18:47:50.493Z,51.47
2018-04-14T18:50:16.546Z,52.33
2018-04-14T18:52:42.552Z,55.50
2018-04-14T18:55:08.601Z,52.40
2018-04-14T18:57:34.656Z,53.63
2018-04-14T19:00:00.670Z,55.23
2018-04-14T19:02:26.762Z,53.17
2018-04-14T19:04:52.728Z,56.70
2018-04-14T19:07:18.857Z,55.27
2018-04-14T19:09:45.021Z,57.67
2018-04-14T19:12:11.063Z,54.80
2018-04-14T19:14:37.381Z,56.47
2018-04-14T19:17:03.412Z,53.40
2018-04-14T19:19:29.462Z,58.00
2018-04-14T19:21:55.527Z,55.57
2018-04-14T19:24:21.536Z,55.43
2018-04-14T19:26:47.536Z,54.90
2018-04-14T19:29:13.651Z,57.03
2018-04-14T19:31:40.428Z,62.87
2018-04-14T19:34:06.546Z,58.47
2018-04-14T19:36:32.588Z,56.47
2018-04-14T19:39:14.074Z,55.90
2018-04-14T19:41:40.101Z,61.43
2018-04-14T19:44:06.130Z,61.67
2018-04-14T19:46:32.333Z,60.90
2018-04-14T19:48:58.368Z,56.93
2018-04-14T19:51:24.394Z,58.90
2018-04-14T19:53:50.744Z,59.03
2018-04-14T19:56:16.864Z,65.47
2018-04-14T19:58:43.013Z,61.13
2018-04-14T20:01:09.028Z,62.70
2018-04-14T20:03:35.076Z,64.23
2018-04-14T20:06:01.090Z,61.67
2018-04-14T20:08:27.091Z,61.90
2018-04-14T20:10:53.693Z,62.97
2018-04-14T20:13:20.538Z,62.90
2018-04-14T20:15:46.548Z,61.20
2018-04-14T20:18:12.560Z,65.47
2018-04-14T20:20:38.603Z,63.93
2018-04-14T20:23:04.621Z,67.37
2018-04-14T20:25:31.696Z,66.10
2018-04-14T20:27:57.716Z,69.07
2018-04-14T20:30:24.136Z,62.90
2018-04-14T20:32:50.882Z,62.73
2018-04-14T20:35:16.880Z,63.57
2018-04-14T20:37:43.208Z,63.47
2018-04-14T20:40:09.259Z,65.23
2018-04-14T20:42:35.404Z,61.77
2018-04-14T20:45:01.841Z,64.07
2018-04-14T20:47:27.857Z,69.77
2018-04-14T20:49:53.920Z,63.87
2018-04-14T20:52:19.933Z,65.97
2018-04-14T20:54:45.989Z,64.20
2018-04-14T20:57:12.020Z,64.50
2018-04-14T20:59:38.024Z,65.50
2018-04-14T21:02:04.042Z,65.57
2018-04-14T21:04:30.055Z,69.93
2018-04-14T21:06:56.132Z,62.80
2018-04-14T21:09:22.232Z,65.43
2018-04-14T21:11:48.245Z,68.73
2018-04-14T21:14:14.329Z,72.63
2018-04-14T21:16:40.344Z,75.17
2018-04-14T21:19:06.387Z,72.83
2018-04-14T21:21:32.397Z,74.07
2018-04-14T21:23:58.436Z,66.77
2018-04-14T21:26:24.849Z,68.53
2018-04-14T21:28:50.864Z,71.33
2018-04-14T21:31:16.930Z,69.73
2018-04-14T21:33:42.940Z,68.83
2018-04-14T21:36:09.096Z,69.27
2018-04-14T21:38:35.176Z,75.67
2018-04-14T21:41:01.593Z,75.67
2018-04-14T21:43:27.600Z,74.80
2018-04-14T21:45:53.705Z,72.07
2018-04-14T21:48:19.768Z,71.13
2018-04-14T21:50:45.864Z,76.30
2018-04-14T21:53:12.073Z,73.87
2018-04-14T21:55:38.188Z,74.33
2018-04-14T21:58:04.189Z,71.37
2018-04-14T22:00:30.211Z,75.90
2018-04-14T22:02:56.299Z,76.77
2018-04-14T22:05:22.328Z,76.27
2018-04-14T22:07:48.336Z,74.47
2018-04-14T22:10:14.921Z,71.73
2018-04-14T22:12:40.990Z,74.80
2018-04-14T22:15:07.013Z,71.73
2018-04-14T22:17:33.047Z,75.50
2018-04-14T22:19:59.119Z,80.20
2018-04-14T22:22:25.187Z,78.90
2018-04-14T22:24:51.189Z,91.07
2018-04-14T22:27:17.216Z,104.40
2018-04-14T22:29:43.252Z,97.83
2018-04-14T22:32:09.269Z,108.07
2018-04-14T22:34:35.569Z,101.50
2018-04-14T22:37:01.592Z,94.10
2018-04-14T22:39:27.740Z,95.73
2018-04-14T22:41:53.795Z,105.53
2018-04-14T22:44:20.081Z,100.80
2018-04-14T22:46:46.137Z,97.87
2018-04-14T22:49:12.169Z,114.17
2018-04-14T22:51:38.221Z,136.47
2018-04-14T22:54:04.254Z,106.63
2018-04-14T22:56:30.305Z,128.67
2018-04-14T22:58:56.345Z,116.07
2018-04-14T23:01:22.852Z,140.80
2018-04-14T23:03:48.892Z,121.03
2018-04-14T23:06:14.905Z,129.80
2018-04-14T23:08:41.120Z,126.07
2018-04-14T23:11:07.129Z,135.80
2018-04-14T23:13:33.272Z,115.30
2018-04-14T23:15:59.392Z,123.23
2018-04-14T23:18:25.421Z,153.23
2018-04-14T23:20:51.426Z,160.17
2018-04-14T23:23:18.040Z,158.97
2018-04-14T23:25:44.048Z,173.13
2018-04-14T23:28:10.057Z,197.53
2018-04-14T23:30:36.096Z,132.17
2018-04-14T23:33:02.110Z,176.30
2018-04-14T23:35:28.486Z,147.03
2018-04-14T23:37:55.240Z,149.60
2018-04-14T23:40:21.360Z,145.33
2018-04-14T23:42:48.104Z,185.57
2018-04-14T23:45:14.204Z,166.83
2018-04-14T23:47:40.309Z,164.47
2018-04-14T23:50:06.600Z,149.67
2018-04-14T23:52:32.601Z,129.30
2018-04-14T23:54:58.642Z,186.87
2018-04-14T23:57:24.792Z,168.40
2018-04-14T23:59:50.832Z,150.33
